createdAt,value
2018-09-14T00:01:21.392Z,18.29
2018-09-14T00:03:51.670Z,18.32
2018-09-14T00:06:22.022Z,18.27
2018-09-14T00:08:52.015Z,18.27
2018-09-14T00:11:23.687Z,18.33
2018-09-14T00:13:55.203Z,18.39
2018-09-14T00:16:25.602Z,18.35
2018-09-14T00:18:55.747Z,18.39
2018-09-14T00:21:27.329Z,18.41
2018-09-14T00:23:58.602Z,18.35
2018-09-14T00:26:28.863Z,18.28
2018-09-14T00:28:59.965Z,18.28
2018-09-14T00:31:31.003Z,18.23
2018-09-14T00:34:01.415Z,18.18
2018-09-14T00:36:32.407Z,18.20
2018-09-14T00:39:02.287Z,18.18
2018-09-14T00:41:33.111Z,18.12
2018-09-14T00:44:03.246Z,18.15
2018-09-14T00:46:33.544Z,18.12
2018-09-14T00:49:03.655Z,18.13
2018-09-14T00:51:33.819Z,18.06
2018-09-14T00:54:03.875Z,18.00
2018-09-14T00:56:33.785Z,17.96
2018-09-14T00:59:04.446Z,17.87
2018-09-14T01:01:36.531Z,17.73
2018-09-14T01:04:06.780Z,17.76
2018-09-14T01:06:36.590Z,17.73
2018-09-14T01:09:40.589Z,17.66
2018-09-14T01:12:11.511Z,17.59
2018-09-14T01:14:41.818Z,17.61
2018-09-14T01:17:13.236Z,17.63
2018-09-14T01:19:43.944Z,17.60
2018-09-14T01:22:15.059Z,17.55
2018-09-14T01:24:45.261Z,17.53
2018-09-14T01:27:15.390Z,17.47
2018-09-14T01:29:45.544Z,17.41
2018-09-14T01:32:15.609Z,17.38
2018-09-14T01:34:46.728Z,17.32
2018-09-14T01:37:17.421Z,17.40
2018-09-14T01:39:48.569Z,17.38
2018-09-14T01:42:19.316Z,17.33
2018-09-14T01:44:49.488Z,17.34
2018-09-14T01:47:19.868Z,17.40
2018-09-14T01:49:50.032Z,17.43
2018-09-14T01:52:20.183Z,17.41
2018-09-14T01:54:51.421Z,17.37
2018-09-14T01:57:22.318Z,17.42
2018-09-14T01:59:52.272Z,17.38
2018-09-14T02:02:22.263Z,17.41
2018-09-14T02:04:54.602Z,17.41
2018-09-14T02:07:24.907Z,17.42
2018-09-14T02:09:55.295Z,17.36
2018-09-14T02:12:26.421Z,17.40
2018-09-14T02:14:56.396Z,17.43
2018-09-14T02:17:28.597Z,17.43
2018-09-14T02:19:59.517Z,17.42
2018-09-14T02:22:30.295Z,17.45
2018-09-14T02:25:01.395Z,17.42
2018-09-14T02:27:31.590Z,17.46
2018-09-14T02:30:01.809Z,17.44
2018-09-14T02:32:31.893Z,17.41
2018-09-14T02:35:02.111Z,17.44
2018-09-14T02:37:33.175Z,17.54
2018-09-14T02:40:03.371Z,17.55
2018-09-14T02:42:33.629Z,17.57
2018-09-14T02:45:03.538Z,17.63
2018-09-14T02:47:33.817Z,17.62
2018-09-14T02:50:06.593Z,17.63
2018-09-14T02:52:36.551Z,17.67
2018-09-14T02:55:07.859Z,17.66
2018-09-14T02:57:38.383Z,17.71
2018-09-14T03:00:09.419Z,17.71
2018-09-14T03:02:39.781Z,17.71
2018-09-14T03:05:10.402Z,17.79
2018-09-14T03:07:41.023Z,17.77
2018-09-14T03:10:12.080Z,17.77
2018-09-14T03:12:44.886Z,17.83
2018-09-14T03:15:16.745Z,17.83
2018-09-14T03:17:47.068Z,17.88
2018-09-14T03:20:17.730Z,17.88
2018-09-14T03:22:48.794Z,17.87
2018-09-14T03:25:19.342Z,17.88
2018-09-14T03:27:49.948Z,17.85
2018-09-14T03:30:20.305Z,17.84
2018-09-14T03:32:50.862Z,17.83
2018-09-14T03:35:20.891Z,17.78
2018-09-14T03:37:50.927Z,17.77
2018-09-14T03:40:20.838Z,17.74
2018-09-14T03:42:50.897Z,17.67
2018-09-14T03:45:21.462Z,17.63
2018-09-14T03:47:51.671Z,17.64
2018-09-14T03:50:21.629Z,17.60
2018-09-14T03:52:51.744Z,17.57
2018-09-14T03:55:22.791Z,17.62
2018-09-14T03:57:53.573Z,17.69
2018-09-14T04:00:23.691Z,17.73
2018-09-14T04:02:53.562Z,17.81
2018-09-14T04:05:23.796Z,17.86
2018-09-14T04:07:53.989Z,17.89
2018-09-14T04:10:24.766Z,17.93
2018-09-14T04:12:55.022Z,17.98
2018-09-14T04:15:25.116Z,18.08
2018-09-14T04:17:55.936Z,18.20
2018-09-14T04:20:26.185Z,18.30
2018-09-14T04:22:57.176Z,18.40
2018-09-14T04:25:27.461Z,18.58
2018-09-14T04:27:57.357Z,18.67
2018-09-14T04:30:28.556Z,18.79
2018-09-14T04:32:58.595Z,18.78
2018-09-14T04:35:29.685Z,18.84
2018-09-14T04:37:59.896Z,18.90
2018-09-14T04:40:31.121Z,18.94
2018-09-14T04:43:02.275Z,19.09
2018-09-14T04:45:33.063Z,19.08
2018-09-14T04:48:05.874Z,19.14
2018-09-14T04:50:35.899Z,19.27
2018-09-14T04:53:06.281Z,19.37
2018-09-14T04:55:36.233Z,19.49
2018-09-14T04:58:06.527Z,19.62
2018-09-14T05:00:36.382Z,19.69
2018-09-14T05:03:06.560Z,19.78
2018-09-14T05:05:37.003Z,19.77
2018-09-14T05:08:06.938Z,19.82
2018-09-14T05:10:38.017Z,19.72
2018-09-14T05:13:10.056Z,19.88
2018-09-14T05:15:41.198Z,20.16
2018-09-14T05:18:11.334Z,20.80
2018-09-14T05:20:42.405Z,21.02
2018-09-14T05:23:12.438Z,22.10
2018-09-14T05:25:43.574Z,23.06
2018-09-14T05:28:13.778Z,23.59
2018-09-14T05:30:43.920Z,24.09
2018-09-14T05:33:15.065Z,24.07
2018-09-14T05:35:45.157Z,23.79
2018-09-14T05:38:15.206Z,24.96
2018-09-14T05:40:45.332Z,24.83
2018-09-14T05:43:17.806Z,25.31
2018-09-14T05:45:49.237Z,25.17
2018-09-14T05:48:20.138Z,24.74
2018-09-14T05:50:50.422Z,24.91
2018-09-14T05:53:22.273Z,24.85
2018-09-14T05:55:52.469Z,24.75
2018-09-14T05:58:22.498Z,24.90
2018-09-14T06:00:53.045Z,25.03
2018-09-14T06:03:23.220Z,25.42
2018-09-14T06:05:54.777Z,25.89
2018-09-14T06:08:24.849Z,25.88
2018-09-14T06:10:55.046Z,25.83
2018-09-14T06:13:28.004Z,26.10
2018-09-14T06:15:58.387Z,26.13
2018-09-14T06:18:28.336Z,26.31
2018-09-14T06:20:58.613Z,26.65
2018-09-14T06:23:28.698Z,26.78
2018-09-14T06:25:58.485Z,27.06
2018-09-14T06:28:28.399Z,27.42
2018-09-14T06:30:59.669Z,26.78
2018-09-14T06:33:30.947Z,26.90
2018-09-14T06:36:02.069Z,26.41
2018-09-14T06:38:32.250Z,26.69
2018-09-14T06:41:02.485Z,26.39
2018-09-14T06:43:32.645Z,26.99
2018-09-14T06:46:02.890Z,27.05
2018-09-14T06:48:32.800Z,26.61
2018-09-14T06:51:02.849Z,26.96
2018-09-14T06:53:32.830Z,26.46
2018-09-14T06:56:03.521Z,26.52
2018-09-14T06:58:34.394Z,26.10
2018-09-14T07:01:04.419Z,25.27
2018-09-14T07:03:34.892Z,24.98
2018-09-14T07:06:04.994Z,24.65
2018-09-14T07:08:35.065Z,24.45
2018-09-14T07:11:05.919Z,24.02
2018-09-14T07:13:35.902Z,24.02
2018-09-14T07:16:05.797Z,23.83
2018-09-14T07:18:39.371Z,23.83
2018-09-14T07:21:09.293Z,24.13
2018-09-14T07:23:39.302Z,24.13
2018-09-14T07:26:09.266Z,23.96
2018-09-14T07:28:42.119Z,24.06
2018-09-14T07:31:12.435Z,24.19
2018-09-14T07:33:42.734Z,24.26
2018-09-14T07:36:13.815Z,24.07
2018-09-14T07:38:44.670Z,24.02
2018-09-14T07:41:14.768Z,24.31
2018-09-14T07:43:44.931Z,24.17
2018-09-14T07:46:15.617Z,24.31
2018-09-14T07:48:45.753Z,24.34
2018-09-14T07:51:16.366Z,24.11
2018-09-14T07:53:47.450Z,24.01
2018-09-14T07:56:17.532Z,23.93
2018-09-14T07:58:49.168Z,23.89
2018-09-14T08:01:19.574Z,23.91
2018-09-14T08:03:52.856Z,24.00
2018-09-14T08:06:22.946Z,24.06
2018-09-14T08:08:52.956Z,23.95
2018-09-14T08:11:24.381Z,23.78
2018-09-14T08:13:56.743Z,23.87
2018-09-14T08:16:27.606Z,23.78
2018-09-14T08:18:57.636Z,23.83
2018-09-14T08:21:27.824Z,23.91
2018-09-14T08:23:58.579Z,23.80
2018-09-14T08:26:28.925Z,23.86
2018-09-14T08:29:00.003Z,24.31
2018-09-14T08:31:30.391Z,24.73
2018-09-14T08:34:00.441Z,24.69
2018-09-14T08:36:31.072Z,24.58
2018-09-14T08:39:01.306Z,24.77
2018-09-14T08:41:31.697Z,24.81
2018-09-14T08:44:02.559Z,24.87
2018-09-14T08:46:32.713Z,24.86
2018-09-14T08:49:04.193Z,24.97
2018-09-14T08:51:34.253Z,25.13
2018-09-14T08:54:04.650Z,25.03
2018-09-14T08:56:34.822Z,24.95
2018-09-14T08:59:07.923Z,25.08
2018-09-14T09:01:37.858Z,25.17
2018-09-14T09:04:08.067Z,25.31
2018-09-14T09:06:38.887Z,25.26
2018-09-14T09:09:12.836Z,24.84
2018-09-14T09:11:45.045Z,24.81
2018-09-14T09:14:16.564Z,24.87
2018-09-14T09:16:47.761Z,24.60
2018-09-14T09:19:17.959Z,24.19
2018-09-14T09:21:48.152Z,24.13
2018-09-14T09:24:19.806Z,24.06
2018-09-14T09:26:50.540Z,23.97
2018-09-14T09:29:20.519Z,23.91
2018-09-14T09:31:50.121Z,23.71
2018-09-14T09:34:20.750Z,23.84
2018-09-14T09:36:52.214Z,23.86
2018-09-14T09:39:23.055Z,23.81
2018-09-14T09:42:01.533Z,23.91
2018-09-14T09:44:32.310Z,24.02
2018-09-14T09:47:02.628Z,24.03
2018-09-14T09:49:32.713Z,23.91
2018-09-14T09:52:02.895Z,24.01
2018-09-14T09:54:32.908Z,24.07
2018-09-14T09:57:03.677Z,24.33
2018-09-14T09:59:33.823Z,24.15
2018-09-14T10:02:09.069Z,24.01
2018-09-14T10:05:43.084Z,24.08
2018-09-14T10:08:14.138Z,24.03
2018-09-14T10:10:44.381Z,23.94
2018-09-14T10:13:14.618Z,24.00
2018-09-14T10:15:44.743Z,24.07
2018-09-14T10:18:14.566Z,24.10
2018-09-14T10:20:44.770Z,24.26
2018-09-14T10:23:14.838Z,24.28
2018-09-14T10:25:44.909Z,24.41
2018-09-14T10:28:15.022Z,24.64
2018-09-14T10:30:45.338Z,24.72
2018-09-14T10:33:15.271Z,24.93
2018-09-14T10:35:45.493Z,25.19
2018-09-14T10:38:15.410Z,25.38
2018-09-14T10:40:47.403Z,25.62
2018-09-14T10:43:17.494Z,25.48
2018-09-14T10:45:47.793Z,25.48
2018-09-14T10:48:18.991Z,25.20
2018-09-14T10:50:49.513Z,25.18
2018-09-14T10:53:21.952Z,25.11
2018-09-14T10:55:52.536Z,25.27
2018-09-14T10:58:22.706Z,25.38
2018-09-14T11:00:52.911Z,25.45
2018-09-14T11:03:23.427Z,25.54
2018-09-14T11:05:53.633Z,25.49
2018-09-14T11:08:23.516Z,25.59
2018-09-14T11:10:53.521Z,25.63
2018-09-14T11:13:23.688Z,25.71
2018-09-14T11:15:53.947Z,25.67
2018-09-14T11:18:24.703Z,25.78
2018-09-14T11:20:59.406Z,25.84
2018-09-14T11:23:29.682Z,25.97
2018-09-14T11:26:00.260Z,26.08
2018-09-14T11:28:30.711Z,26.29
2018-09-14T11:31:01.248Z,26.51
2018-09-14T11:33:31.401Z,26.84
2018-09-14T11:36:04.742Z,26.93
2018-09-14T11:38:35.595Z,26.95
2018-09-14T11:41:05.562Z,26.84
2018-09-14T11:43:36.600Z,26.68
2018-09-14T11:46:07.749Z,26.82
2018-09-14T11:48:37.767Z,27.17
2018-09-14T11:51:09.208Z,27.36
2018-09-14T11:53:40.137Z,26.66
2018-09-14T11:56:10.275Z,25.57
2018-09-14T11:58:41.360Z,24.78
2018-09-14T12:01:11.794Z,24.38
2018-09-14T12:03:42.822Z,24.22
2018-09-14T12:06:13.167Z,23.95
2018-09-14T12:08:43.297Z,24.26
2018-09-14T12:11:15.624Z,24.40
2018-09-14T12:13:45.886Z,24.10
2018-09-14T12:16:16.810Z,23.82
2018-09-14T12:18:49.437Z,23.94
2018-09-14T12:21:19.897Z,23.83
2018-09-14T12:23:50.835Z,23.61
2018-09-14T12:26:22.088Z,23.59
2018-09-14T12:28:53.557Z,23.36
2018-09-14T12:31:26.282Z,22.47
2018-09-14T12:33:56.304Z,21.26
2018-09-14T12:36:26.386Z,20.87
2018-09-14T12:38:56.459Z,20.79
2018-09-14T12:41:26.997Z,20.67
2018-09-14T12:43:56.832Z,20.67
2018-09-14T12:46:26.911Z,20.71
2018-09-14T12:48:57.160Z,20.65
2018-09-14T12:51:27.068Z,20.56
2018-09-14T12:53:57.215Z,20.55
2018-09-14T12:56:29.916Z,20.49
2018-09-14T12:59:00.187Z,20.63
2018-09-14T13:01:31.267Z,20.70
2018-09-14T13:04:01.123Z,20.95
2018-09-14T13:06:30.970Z,21.11
2018-09-14T13:09:01.115Z,21.22
2018-09-14T13:11:31.354Z,21.39
2018-09-14T13:14:02.490Z,21.39
2018-09-14T13:16:32.531Z,21.40
2018-09-14T13:19:03.899Z,21.45
2018-09-14T13:21:34.621Z,21.14
2018-09-14T13:24:04.738Z,21.40
2018-09-14T13:26:34.804Z,21.31
2018-09-14T13:29:04.935Z,21.19
2018-09-14T13:31:41.577Z,20.98
2018-09-14T13:34:11.699Z,20.87
2018-09-14T13:36:42.624Z,20.81
2018-09-14T13:39:13.796Z,20.94
2018-09-14T13:41:43.602Z,21.03
2018-09-14T13:44:14.008Z,21.15
2018-09-14T13:46:47.886Z,21.25
2018-09-14T13:49:18.088Z,21.32
2018-09-14T13:51:48.504Z,21.43
2018-09-14T13:54:19.024Z,21.53
2018-09-14T13:56:49.268Z,21.61
2018-09-14T13:59:19.695Z,21.71
2018-09-14T14:01:49.804Z,21.79
2018-09-14T14:04:19.690Z,21.88
2018-09-14T14:06:51.687Z,21.85
2018-09-14T14:09:22.966Z,21.80
2018-09-14T14:11:53.315Z,21.74
2018-09-14T14:14:24.432Z,21.80
2018-09-14T14:16:55.533Z,21.74
2018-09-14T14:19:25.641Z,21.68
2018-09-14T14:21:55.703Z,21.80
2018-09-14T14:24:25.840Z,21.76
2018-09-14T14:26:56.429Z,21.77
2018-09-14T14:29:28.027Z,21.83
2018-09-14T14:31:58.077Z,21.83
2018-09-14T14:34:28.281Z,21.90
2018-09-14T14:36:59.506Z,21.99
2018-09-14T14:39:29.552Z,21.94
2018-09-14T14:41:59.817Z,21.90
2018-09-14T14:44:30.109Z,22.00
2018-09-14T14:47:01.233Z,22.06
2018-09-14T14:49:33.098Z,22.17
2018-09-14T14:52:04.203Z,22.16
2018-09-14T14:54:34.369Z,22.25
2018-09-14T14:57:04.880Z,22.30
2018-09-14T14:59:35.248Z,22.33
2018-09-14T15:02:05.458Z,22.25
2018-09-14T15:04:35.457Z,22.29
2018-09-14T15:07:05.522Z,22.18
2018-09-14T15:09:35.754Z,22.19
2018-09-14T15:12:06.035Z,22.33
2018-09-14T15:14:36.984Z,22.35
2018-09-14T15:17:10.453Z,22.25
2018-09-14T15:19:40.619Z,22.29
2018-09-14T15:22:12.430Z,22.26
2018-09-14T15:24:42.961Z,22.21
2018-09-14T15:27:13.295Z,22.23
2018-09-14T15:29:43.772Z,22.14
2018-09-14T15:32:15.103Z,22.15
2018-09-14T15:34:45.225Z,22.05
2018-09-14T15:37:15.918Z,22.07
2018-09-14T15:39:46.148Z,22.00
2018-09-14T15:42:17.204Z,22.04
2018-09-14T15:44:47.248Z,21.94
2018-09-14T15:47:17.404Z,21.90
2018-09-14T15:49:49.618Z,21.87
2018-09-14T15:52:20.586Z,21.81
2018-09-14T15:54:50.782Z,21.88
2018-09-14T15:57:21.879Z,21.79
2018-09-14T15:59:52.008Z,21.85
2018-09-14T16:02:22.206Z,21.78
2018-09-14T16:04:52.467Z,21.66
2018-09-14T16:07:22.748Z,21.61
2018-09-14T16:09:53.715Z,21.61
2018-09-14T16:12:23.809Z,21.53
2018-09-14T16:14:54.005Z,21.44
2018-09-14T16:17:24.122Z,21.43
2018-09-14T16:19:54.460Z,21.34
2018-09-14T16:22:24.891Z,21.33
2018-09-14T16:24:55.051Z,21.25
2018-09-14T16:27:25.268Z,21.21
2018-09-14T16:29:55.460Z,21.28
2018-09-14T16:32:25.799Z,21.25
2018-09-14T16:34:57.805Z,21.28
2018-09-14T16:37:27.782Z,21.26
2018-09-14T16:39:58.277Z,21.26
2018-09-14T16:42:28.488Z,21.25
2018-09-14T16:44:58.796Z,21.28
2018-09-14T16:47:30.466Z,21.29
2018-09-14T16:50:01.952Z,21.35
2018-09-14T16:52:32.714Z,21.29
2018-09-14T16:55:02.981Z,21.29
2018-09-14T16:57:33.295Z,21.34
2018-09-14T17:00:04.484Z,21.30
2018-09-14T17:02:34.680Z,21.22
2018-09-14T17:05:05.115Z,21.24
2018-09-14T17:07:35.508Z,20.95
2018-09-14T17:10:06.861Z,21.28
2018-09-14T17:12:39.434Z,21.21
2018-09-14T17:15:10.098Z,21.21
2018-09-14T17:17:41.991Z,21.20
2018-09-14T17:20:12.194Z,21.30
2018-09-14T17:22:42.432Z,21.17
2018-09-14T17:25:12.676Z,21.13
2018-09-14T17:27:43.781Z,21.20
2018-09-14T17:30:14.212Z,21.27
2018-09-14T17:32:44.460Z,21.19
2018-09-14T17:35:14.799Z,21.35
2018-09-14T17:37:44.940Z,21.28
2018-09-14T17:40:15.112Z,21.31
2018-09-14T17:42:45.244Z,21.33
2018-09-14T17:45:15.591Z,21.35
2018-09-14T17:47:46.107Z,21.36
2018-09-14T17:50:16.260Z,21.43
2018-09-14T17:52:47.077Z,21.42
2018-09-14T17:55:16.984Z,21.39
2018-09-14T17:57:46.868Z,21.44
2018-09-14T18:00:18.225Z,21.42
2018-09-14T18:02:50.084Z,21.44
2018-09-14T18:05:20.323Z,21.40
2018-09-14T18:07:50.526Z,21.41
2018-09-14T18:10:21.004Z,21.34
2018-09-14T18:12:51.380Z,21.34
2018-09-14T18:15:21.508Z,21.28
2018-09-14T18:17:51.783Z,21.23
2018-09-14T18:20:22.159Z,21.19
2018-09-14T18:22:52.339Z,21.23
2018-09-14T18:25:26.946Z,21.19
2018-09-14T18:27:57.680Z,21.20
2018-09-14T18:30:28.665Z,21.21
2018-09-14T18:32:59.686Z,21.20
2018-09-14T18:35:29.735Z,21.14
2018-09-14T18:38:00.100Z,21.17
2018-09-14T18:40:32.779Z,21.18
2018-09-14T18:43:03.628Z,21.21
2018-09-14T18:45:33.842Z,21.21
2018-09-14T18:48:03.862Z,21.18
2018-09-14T18:50:34.089Z,21.12
2018-09-14T18:53:04.373Z,21.06
2018-09-14T18:55:34.738Z,21.07
2018-09-14T18:58:04.970Z,21.00
2018-09-14T19:00:35.446Z,21.00
2018-09-14T19:03:05.639Z,20.96
2018-09-14T19:05:35.842Z,20.94
2018-09-14T19:08:06.244Z,20.94
2018-09-14T19:10:37.962Z,20.97
2018-09-14T19:13:08.399Z,21.04
2018-09-14T19:15:39.496Z,21.00
2018-09-14T19:18:11.059Z,20.99
2018-09-14T19:20:41.618Z,21.05
2018-09-14T19:23:13.351Z,21.08
2018-09-14T19:25:43.670Z,21.16
2018-09-14T19:28:14.396Z,21.21
2018-09-14T19:30:44.521Z,21.17
2018-09-14T19:33:15.936Z,21.20
2018-09-14T19:35:46.126Z,21.21
2018-09-14T19:38:19.839Z,21.24
2018-09-14T19:40:50.504Z,21.28
2018-09-14T19:43:21.717Z,21.31
2018-09-14T19:45:51.746Z,21.33
2018-09-14T19:48:23.701Z,21.32
2018-09-14T19:50:54.180Z,21.26
2018-09-14T19:53:24.580Z,21.27
2018-09-14T19:55:55.811Z,21.30
2018-09-14T19:58:33.912Z,20.93
2018-09-14T20:01:04.100Z,21.17
2018-09-14T20:03:35.390Z,21.25
2018-09-14T20:06:05.949Z,21.29
2018-09-14T20:08:35.838Z,21.30
2018-09-14T20:11:06.032Z,21.29
2018-09-14T20:13:40.499Z,21.25
2018-09-14T20:16:12.488Z,21.19
2018-09-14T20:18:43.225Z,21.24
2018-09-14T20:21:13.545Z,21.25
2018-09-14T20:23:44.388Z,21.25
2018-09-14T20:26:14.785Z,21.26
2018-09-14T20:28:45.243Z,21.32
2018-09-14T20:31:15.352Z,21.32
2018-09-14T20:33:47.668Z,21.31
2018-09-14T20:36:18.357Z,21.26
2018-09-14T20:38:48.317Z,21.23
2018-09-14T20:41:18.473Z,21.32
2018-09-14T20:43:48.732Z,21.34
2018-09-14T20:46:18.908Z,21.30
2018-09-14T20:48:50.906Z,21.28
2018-09-14T20:51:21.030Z,21.25
2018-09-14T20:53:51.058Z,21.29
2018-09-14T20:56:22.464Z,21.23
2018-09-14T20:58:52.909Z,21.22
2018-09-14T21:01:23.134Z,21.29
2018-09-14T21:03:54.762Z,21.33
2018-09-14T21:06:24.842Z,21.33
2018-09-14T21:08:55.152Z,21.38
2018-09-14T21:13:54.590Z,21.24
2018-09-14T21:16:24.878Z,21.29
2018-09-14T21:18:56.728Z,21.28
2018-09-14T21:21:26.909Z,21.32
2018-09-14T21:23:57.501Z,21.33
2018-09-14T21:26:28.002Z,21.39
2018-09-14T21:28:58.610Z,21.37
2018-09-14T21:31:29.725Z,21.43
2018-09-14T21:34:00.222Z,21.47
2018-09-14T21:36:30.177Z,21.48
2018-09-14T21:39:00.532Z,21.49
2018-09-14T21:41:30.750Z,21.47
2018-09-14T21:44:00.757Z,21.44
2018-09-14T21:46:31.020Z,21.44
2018-09-14T21:49:02.464Z,21.41
2018-09-14T21:51:32.677Z,21.38
2018-09-14T21:54:02.992Z,21.25
2018-09-14T21:56:33.395Z,21.29
2018-09-14T21:59:04.606Z,21.27
2018-09-14T22:01:34.694Z,21.24
2018-09-14T22:04:06.763Z,21.39
2018-09-14T22:06:37.325Z,21.44
2018-09-14T22:09:10.141Z,21.48
2018-09-14T22:11:40.324Z,21.45
2018-09-14T22:14:10.566Z,21.48
2018-09-14T22:16:40.887Z,21.46
2018-09-14T22:19:12.075Z,21.50
2018-09-14T22:21:42.326Z,21.45
2018-09-14T22:24:12.696Z,21.49
2018-09-14T22:26:42.992Z,21.48
2018-09-14T22:29:13.437Z,21.43
2018-09-14T22:31:43.667Z,21.49
2018-09-14T22:34:14.616Z,21.52
2018-09-14T22:36:45.484Z,21.53
2018-09-14T22:39:16.830Z,21.45
2018-09-14T22:41:47.270Z,21.46
2018-09-14T22:44:18.484Z,21.43
2018-09-14T22:46:48.529Z,21.35
2018-09-14T22:49:18.781Z,21.26
2018-09-14T22:51:48.911Z,21.31
2018-09-14T22:54:19.307Z,21.31
2018-09-14T22:56:50.029Z,21.31
2018-09-14T22:59:20.448Z,21.30
2018-09-14T23:01:54.148Z,21.25
2018-09-14T23:04:25.280Z,21.22
2018-09-14T23:06:56.117Z,21.12
2018-09-14T23:09:26.679Z,21.06
2018-09-14T23:11:56.725Z,21.09
2018-09-14T23:14:27.826Z,21.10
2018-09-14T23:16:58.366Z,21.00
2018-09-14T23:19:32.449Z,20.96
2018-09-14T23:22:03.749Z,20.94
2018-09-14T23:24:34.177Z,21.00
2018-09-14T23:27:04.180Z,20.96
2018-09-14T23:29:38.674Z,20.96
2018-09-14T23:32:08.777Z,20.94
2018-09-14T23:34:40.560Z,20.93
2018-09-14T23:37:11.125Z,20.85
2018-09-14T23:39:42.407Z,20.80
2018-09-14T23:45:22.334Z,20.79
2018-09-14T23:47:52.729Z,20.84
2018-09-14T23:50:23.064Z,20.75
2018-09-14T23:52:53.183Z,20.68
2018-09-14T23:55:24.103Z,20.61
2018-09-14T23:57:54.398Z,20.62
